createdAt,value
2022-12-28T00:01:20.682Z,2.55
2022-12-28T00:03:49.349Z,2.55
2022-12-28T00:06:18.070Z,2.54
2022-12-28T00:08:46.050Z,2.53
2022-12-28T00:11:27.544Z,2.50
2022-12-28T00:14:00.502Z,2.45
2022-12-28T00:16:31.857Z,2.47
2022-12-28T00:19:01.153Z,2.48
2022-12-28T00:21:29.238Z,2.47
2022-12-28T00:23:58.525Z,2.46
2022-12-28T00:26:28.489Z,2.43
2022-12-28T00:29:03.631Z,2.42
2022-12-28T00:31:33.786Z,2.39
2022-12-28T00:34:02.740Z,2.37
2022-12-28T00:37:10.413Z,2.33
2022-12-28T00:39:22.314Z,2.28
2022-12-28T00:41:50.380Z,2.23
2022-12-28T00:44:18.426Z,2.17
2022-12-28T00:46:46.331Z,2.10
2022-12-28T00:49:14.366Z,2.05
2022-12-28T00:51:42.787Z,1.99
2022-12-28T00:54:10.736Z,1.93
2022-12-28T00:56:40.470Z,1.88
2022-12-28T00:59:09.682Z,1.82
2022-12-28T01:01:38.315Z,1.79
2022-12-28T01:04:06.518Z,1.75
2022-12-28T01:06:34.429Z,1.71
2022-12-28T01:09:02.420Z,1.65
2022-12-28T01:11:30.850Z,1.55
2022-12-28T01:13:59.921Z,1.47
2022-12-28T01:16:32.202Z,1.38
2022-12-28T01:19:01.508Z,1.30
2022-12-28T01:21:31.151Z,1.23
2022-12-28T01:24:01.261Z,1.16
2022-12-28T01:26:29.724Z,1.06
2022-12-28T01:28:58.461Z,0.96
2022-12-28T01:31:26.668Z,0.86
2022-12-28T01:33:55.634Z,0.80
2022-12-28T01:36:25.712Z,0.79
2022-12-28T01:38:54.958Z,0.77
2022-12-28T01:41:23.601Z,0.73
2022-12-28T01:43:54.541Z,0.70
2022-12-28T01:46:32.680Z,0.68
2022-12-28T01:49:18.947Z,0.67
2022-12-28T01:51:50.557Z,0.66
2022-12-28T01:54:19.319Z,0.65
2022-12-28T01:56:48.825Z,0.64
2022-12-28T01:59:18.442Z,0.61
2022-12-28T02:01:46.363Z,0.58
2022-12-28T02:04:14.906Z,0.53
2022-12-28T02:06:43.047Z,0.48
2022-12-28T02:09:14.464Z,0.41
2022-12-28T02:11:42.641Z,0.33
2022-12-28T02:14:11.538Z,0.25
2022-12-28T02:16:39.480Z,0.16
2022-12-28T02:19:12.076Z,0.07
2022-12-28T02:21:52.374Z,-0.02
2022-12-28T02:24:39.821Z,-0.09
2022-12-28T02:27:47.153Z,-0.16
2022-12-28T02:30:15.647Z,-0.22
2022-12-28T02:33:02.563Z,-0.26
2022-12-28T02:35:33.711Z,-0.31
2022-12-28T02:38:06.913Z,-0.35
2022-12-28T02:40:38.409Z,-0.37
2022-12-28T02:43:06.676Z,-0.39
2022-12-28T02:45:53.278Z,-0.43
2022-12-28T02:48:40.076Z,-0.48
2022-12-28T02:51:20.922Z,-0.54
2022-12-28T02:53:51.837Z,-0.59
2022-12-28T02:56:40.932Z,-0.63
2022-12-28T02:59:08.825Z,-0.66
2022-12-28T03:01:40.208Z,-0.68
2022-12-28T03:04:16.995Z,-0.69
2022-12-28T03:07:13.876Z,-0.71
2022-12-28T03:09:46.342Z,-0.71
2022-12-28T03:12:20.917Z,-0.70
2022-12-28T03:14:50.680Z,-0.70
2022-12-28T03:17:39.290Z,-0.70
2022-12-28T03:20:32.067Z,-0.70
2022-12-28T03:23:19.327Z,-0.71
2022-12-28T03:26:08.018Z,-0.74
2022-12-28T03:29:01.239Z,-0.78
2022-12-28T03:31:31.196Z,-0.84
2022-12-28T03:34:07.204Z,-0.89
2022-12-28T03:36:55.338Z,-0.96
2022-12-28T03:39:49.518Z,-1.04
2022-12-28T03:42:42.573Z,-1.11
2022-12-28T03:45:16.718Z,-1.19
2022-12-28T03:48:05.651Z,-1.25
2022-12-28T03:50:36.611Z,-1.29
2022-12-28T03:53:04.774Z,-1.33
2022-12-28T03:55:32.592Z,-1.37
2022-12-28T03:58:00.589Z,-1.42
2022-12-28T04:00:29.784Z,-1.48
2022-12-28T04:02:57.897Z,-1.53
2022-12-28T04:05:25.902Z,-1.57
2022-12-28T04:07:54.037Z,-1.63
2022-12-28T04:10:22.558Z,-1.68
2022-12-28T04:12:54.215Z,-1.72
2022-12-28T04:15:28.027Z,-1.77
2022-12-28T04:17:56.078Z,-1.82
2022-12-28T04:20:24.359Z,-1.90
2022-12-28T04:22:52.315Z,-1.96
2022-12-28T04:25:20.633Z,-2.00
2022-12-28T04:27:49.100Z,-2.06
2022-12-28T04:30:36.956Z,-2.11
2022-12-28T04:33:05.227Z,-2.15
2022-12-28T04:35:34.092Z,-2.19
2022-12-28T04:38:02.090Z,-2.23
2022-12-28T04:40:30.000Z,-2.28
2022-12-28T04:42:57.896Z,-2.32
2022-12-28T04:45:25.821Z,-2.37
2022-12-28T04:47:57.289Z,-2.41
2022-12-28T04:50:26.119Z,-2.44
2022-12-28T04:52:54.773Z,-2.48
2022-12-28T04:55:32.624Z,-2.50
2022-12-28T04:58:01.817Z,-2.53
2022-12-28T05:00:29.834Z,-2.57
2022-12-28T05:03:01.171Z,-2.62
2022-12-28T05:05:30.414Z,-2.64
2022-12-28T05:08:02.097Z,-2.67
2022-12-28T05:10:30.726Z,-2.71
2022-12-28T05:12:58.807Z,-2.73
2022-12-28T05:15:26.798Z,-2.78
2022-12-28T05:17:55.353Z,-2.83
2022-12-28T05:20:23.544Z,-2.85
2022-12-28T05:22:51.546Z,-2.84
2022-12-28T05:25:19.425Z,-2.81
2022-12-28T05:27:47.452Z,-2.77
2022-12-28T05:30:15.613Z,-2.72
2022-12-28T05:32:43.735Z,-2.63
2022-12-28T05:35:11.699Z,-2.57
2022-12-28T05:37:39.668Z,-2.49
2022-12-28T05:40:07.849Z,-2.42
2022-12-28T05:42:36.471Z,-2.39
2022-12-28T05:45:04.805Z,-2.38
2022-12-28T05:47:33.030Z,-2.37
2022-12-28T05:50:00.935Z,-2.36
2022-12-28T05:52:30.348Z,-2.38
2022-12-28T05:54:58.207Z,-2.38
2022-12-28T05:57:26.177Z,-2.40
2022-12-28T05:59:54.415Z,-2.45
2022-12-28T06:02:25.800Z,-2.50
2022-12-28T06:04:54.561Z,-2.53
2022-12-28T06:07:23.105Z,-2.56
2022-12-28T06:09:55.959Z,-2.59
2022-12-28T06:12:26.535Z,-2.63
2022-12-28T06:14:54.659Z,-2.69
2022-12-28T06:17:22.524Z,-2.75
2022-12-28T06:19:55.376Z,-2.78
2022-12-28T06:22:25.772Z,-2.80
2022-12-28T06:24:53.869Z,-2.81
2022-12-28T06:27:21.850Z,-2.83
2022-12-28T06:29:49.843Z,-2.86
2022-12-28T06:32:17.942Z,-2.89
2022-12-28T06:34:45.841Z,-2.92
2022-12-28T06:37:13.783Z,-2.92
2022-12-28T06:39:42.028Z,-2.92
2022-12-28T06:42:09.928Z,-2.91
2022-12-28T06:44:42.542Z,-2.92
2022-12-28T06:47:12.687Z,-2.93
2022-12-28T06:49:40.816Z,-2.92
2022-12-28T06:52:09.168Z,-2.91
2022-12-28T06:54:36.950Z,-2.87
2022-12-28T06:57:04.905Z,-2.85
2022-12-28T06:59:32.905Z,-2.83
2022-12-28T07:02:01.130Z,-2.83
2022-12-28T07:04:29.111Z,-2.81
2022-12-28T07:06:57.102Z,-2.78
2022-12-28T07:09:25.088Z,-2.75
2022-12-28T07:11:53.026Z,-2.70
2022-12-28T07:14:21.009Z,-2.66
2022-12-28T07:16:49.408Z,-2.62
2022-12-28T07:19:17.374Z,-2.59
2022-12-28T07:21:45.539Z,-2.57
2022-12-28T07:24:13.650Z,-2.53
2022-12-28T07:26:41.658Z,-2.48
2022-12-28T07:29:09.687Z,-2.39
2022-12-28T07:31:44.870Z,-2.31
2022-12-28T07:34:17.052Z,-2.23
2022-12-28T07:36:45.204Z,-2.16
2022-12-28T07:39:13.417Z,-2.08
2022-12-28T07:41:41.487Z,-2.00
2022-12-28T07:44:10.820Z,-1.92
2022-12-28T07:46:38.886Z,-1.85
2022-12-28T07:49:07.080Z,-1.80
2022-12-28T07:51:36.515Z,-1.74
2022-12-28T07:54:05.199Z,-1.68
2022-12-28T07:59:04.290Z,-1.65
2022-12-28T08:01:34.107Z,-1.64
2022-12-28T08:04:04.177Z,-1.65
2022-12-28T08:06:34.544Z,-1.63
2022-12-28T08:09:02.925Z,-1.61
2022-12-28T08:11:32.888Z,-1.59
2022-12-28T08:14:02.381Z,-1.54
2022-12-28T08:16:31.978Z,-1.45
2022-12-28T08:19:00.447Z,-1.34
2022-12-28T08:21:30.506Z,-1.24
2022-12-28T08:23:59.285Z,-1.14
2022-12-28T08:26:29.454Z,-1.06
2022-12-28T08:28:58.934Z,-1.01
2022-12-28T08:31:29.101Z,-0.98
2022-12-28T08:33:58.006Z,-0.94
2022-12-28T08:36:25.973Z,-0.91
2022-12-28T08:38:54.315Z,-0.87
2022-12-28T08:41:23.218Z,-0.82
2022-12-28T08:43:52.063Z,-0.78
2022-12-28T08:46:22.114Z,-0.72
2022-12-28T08:48:51.426Z,-0.64
2022-12-28T08:51:21.252Z,-0.54
2022-12-28T08:53:49.809Z,-0.45
2022-12-28T08:56:23.324Z,-0.35
2022-12-28T08:58:51.623Z,-0.24
2022-12-28T09:01:21.707Z,-0.13
2022-12-28T09:03:51.042Z,-0.05
2022-12-28T09:06:24.270Z,0.00
2022-12-28T09:09:08.582Z,0.04
2022-12-28T09:11:37.377Z,0.07
2022-12-28T09:14:07.187Z,0.12
2022-12-28T09:16:35.862Z,0.21
2022-12-28T09:19:05.338Z,0.32
2022-12-28T09:21:38.853Z,0.40
2022-12-28T09:24:08.216Z,0.50
2022-12-28T09:26:37.256Z,0.63
2022-12-28T09:29:06.695Z,0.76
2022-12-28T09:31:37.525Z,0.85
2022-12-28T09:36:55.806Z,1.03
2022-12-28T09:39:27.396Z,1.22
2022-12-28T09:41:57.957Z,1.41
2022-12-28T09:44:40.818Z,1.60
2022-12-28T09:47:24.272Z,1.73
2022-12-28T09:50:00.433Z,1.76
2022-12-28T09:52:28.578Z,1.79
2022-12-28T09:55:00.661Z,1.85
2022-12-28T09:57:33.242Z,1.88
2022-12-28T10:00:01.574Z,1.84
2022-12-28T10:02:37.789Z,1.79
2022-12-28T10:05:06.874Z,1.85
2022-12-28T10:07:36.848Z,1.88
2022-12-28T10:10:05.523Z,1.86
2022-12-28T10:12:34.747Z,1.86
2022-12-28T10:15:02.752Z,1.87
2022-12-28T10:17:31.069Z,1.87
2022-12-28T10:19:59.300Z,1.91
2022-12-28T10:22:34.140Z,1.95
2022-12-28T10:25:02.206Z,2.00
2022-12-28T10:27:31.556Z,2.05
2022-12-28T10:30:01.829Z,2.12
2022-12-28T10:32:47.765Z,2.21
2022-12-28T10:35:30.572Z,2.35
2022-12-28T10:38:04.460Z,2.44
2022-12-28T10:40:34.347Z,2.50
2022-12-28T10:43:10.110Z,2.55
2022-12-28T10:45:51.927Z,2.60
2022-12-28T10:48:23.656Z,2.64
2022-12-28T10:50:54.773Z,2.68
2022-12-28T10:53:31.330Z,2.76
2022-12-28T10:56:14.996Z,2.85
2022-12-28T10:58:46.590Z,2.92
2022-12-28T11:01:15.175Z,3.01
2022-12-28T11:03:45.127Z,3.12
2022-12-28T11:06:26.817Z,3.19
2022-12-28T11:09:18.897Z,3.25
2022-12-28T11:11:48.004Z,3.30
2022-12-28T11:14:19.356Z,3.35
2022-12-28T11:16:47.777Z,3.42
2022-12-28T11:19:16.757Z,3.47
2022-12-28T11:21:45.646Z,3.53
2022-12-28T11:24:15.656Z,3.60
2022-12-28T11:26:48.340Z,3.65
2022-12-28T11:29:18.012Z,3.67
2022-12-28T11:31:49.760Z,3.64
2022-12-28T11:34:20.538Z,3.65
2022-12-28T11:36:49.237Z,3.69
2022-12-28T11:39:26.900Z,3.71
2022-12-28T11:42:28.131Z,3.75
2022-12-28T11:44:48.435Z,3.80
2022-12-28T11:47:16.654Z,3.84
2022-12-28T11:49:45.870Z,3.85
2022-12-28T11:52:17.684Z,3.88
2022-12-28T11:55:03.167Z,3.96
2022-12-28T11:57:40.452Z,4.04
2022-12-28T12:00:28.827Z,4.10
2022-12-28T12:03:03.909Z,4.17
2022-12-28T12:05:36.561Z,4.23
2022-12-28T12:08:16.993Z,4.26
2022-12-28T12:10:45.650Z,4.30
2022-12-28T12:13:26.801Z,4.32
2022-12-28T12:15:58.625Z,4.30
2022-12-28T12:18:29.116Z,4.27
2022-12-28T12:21:13.364Z,4.24
2022-12-28T12:23:43.763Z,4.25
2022-12-28T12:26:27.819Z,4.25
2022-12-28T12:29:01.193Z,4.22
2022-12-28T12:31:36.288Z,4.13
2022-12-28T12:34:12.091Z,4.05
2022-12-28T12:36:51.891Z,4.00
2022-12-28T12:39:27.690Z,3.97
2022-12-28T12:42:05.816Z,3.92
2022-12-28T12:44:52.669Z,3.89
2022-12-28T12:47:26.965Z,3.92
2022-12-28T12:50:02.929Z,3.96
2022-12-28T12:52:42.356Z,4.03
2022-12-28T12:55:10.968Z,4.09
2022-12-28T12:57:45.384Z,4.10
2022-12-28T13:00:16.582Z,4.10
2022-12-28T13:02:47.995Z,4.11
2022-12-28T13:05:18.967Z,4.13
2022-12-28T13:07:47.238Z,4.10
2022-12-28T13:10:38.569Z,4.06
2022-12-28T13:13:06.783Z,4.03
2022-12-28T13:15:35.216Z,4.03
2022-12-28T13:21:00.533Z,4.01
2022-12-28T13:23:30.534Z,4.01
2022-12-28T13:26:01.097Z,3.99
2022-12-28T13:28:35.068Z,3.99
2022-12-28T13:31:11.363Z,3.98
2022-12-28T13:33:39.489Z,3.96
2022-12-28T13:36:10.908Z,3.95
2022-12-28T13:38:39.169Z,3.93
2022-12-28T13:41:17.215Z,3.88
2022-12-28T13:44:00.645Z,3.82
2022-12-28T13:46:29.656Z,3.79
2022-12-28T13:48:59.671Z,3.77
2022-12-28T13:51:28.488Z,3.74
2022-12-28T13:53:59.683Z,3.71
2022-12-28T13:56:28.531Z,3.69
2022-12-28T13:59:01.328Z,3.66
2022-12-28T14:01:32.207Z,3.64
2022-12-28T14:04:42.559Z,3.60
2022-12-28T14:06:55.014Z,3.55
2022-12-28T14:09:23.631Z,3.50
2022-12-28T14:11:52.083Z,3.45
2022-12-28T14:14:20.574Z,3.41
2022-12-28T14:16:50.040Z,3.36
2022-12-28T14:19:18.406Z,3.31
2022-12-28T14:21:46.626Z,3.24
2022-12-28T14:24:16.379Z,3.17
2022-12-28T14:26:50.209Z,3.09
2022-12-28T14:29:29.149Z,3.01
2022-12-28T14:32:02.652Z,2.93
2022-12-28T14:34:31.935Z,2.88
2022-12-28T14:37:00.376Z,2.80
2022-12-28T14:39:34.760Z,2.72
2022-12-28T14:42:04.425Z,2.63
2022-12-28T14:44:33.828Z,2.55
2022-12-28T14:47:01.869Z,2.47
2022-12-28T14:49:30.020Z,2.39
2022-12-28T14:52:18.400Z,2.30
2022-12-28T14:54:46.485Z,2.19
2022-12-28T14:57:34.884Z,2.09
2022-12-28T15:00:06.038Z,1.99
2022-12-28T15:02:34.489Z,1.92
2022-12-28T15:05:03.496Z,1.84
2022-12-28T15:07:31.861Z,1.76
2022-12-28T15:10:00.202Z,1.69
2022-12-28T15:12:28.946Z,1.63
2022-12-28T15:14:56.805Z,1.56
2022-12-28T15:17:29.874Z,1.47
2022-12-28T15:20:02.017Z,1.39
2022-12-28T15:22:30.424Z,1.31
2022-12-28T15:24:58.818Z,1.21
2022-12-28T15:27:26.679Z,1.14
2022-12-28T15:30:12.041Z,1.08
2022-12-28T15:32:42.639Z,1.03
2022-12-28T15:35:10.846Z,1.01
2022-12-28T15:37:38.996Z,1.02
2022-12-28T15:40:07.585Z,1.02
2022-12-28T15:42:40.274Z,1.00
2022-12-28T15:45:09.414Z,1.00
2022-12-28T15:47:37.550Z,1.00
2022-12-28T15:50:06.534Z,1.01
2022-12-28T15:52:34.801Z,1.02
2022-12-28T15:55:03.117Z,1.05
2022-12-28T15:57:31.438Z,1.08
2022-12-28T15:59:59.697Z,1.11
2022-12-28T16:02:28.419Z,1.13
2022-12-28T16:04:57.287Z,1.12
2022-12-28T16:07:25.396Z,1.12
2022-12-28T16:09:53.442Z,1.11
2022-12-28T16:12:21.618Z,1.08
2022-12-28T16:14:49.701Z,1.03
2022-12-28T16:17:18.566Z,0.97
2022-12-28T16:19:46.698Z,0.89
2022-12-28T16:22:14.766Z,0.80
2022-12-28T16:24:42.885Z,0.70
2022-12-28T16:27:11.271Z,0.60
2022-12-28T16:29:39.220Z,0.50
2022-12-28T16:32:07.473Z,0.42
2022-12-28T16:34:35.473Z,0.36
2022-12-28T16:37:03.540Z,0.29
2022-12-28T16:39:31.661Z,0.23
2022-12-28T16:41:59.746Z,0.19
2022-12-28T16:44:28.080Z,0.14
2022-12-28T16:46:58.494Z,0.11
2022-12-28T16:49:27.481Z,0.11
2022-12-28T16:51:56.432Z,0.10
2022-12-28T16:54:25.545Z,0.09
2022-12-28T16:56:53.983Z,0.08
2022-12-28T16:59:24.672Z,0.05
2022-12-28T17:01:53.766Z,-0.02
2022-12-28T17:04:22.206Z,-0.09
2022-12-28T17:06:51.896Z,-0.16
2022-12-28T17:09:20.406Z,-0.23
2022-12-28T17:11:49.437Z,-0.31
2022-12-28T17:14:35.723Z,-0.38
2022-12-28T17:17:06.009Z,-0.44
2022-12-28T17:19:34.584Z,-0.48
2022-12-28T17:22:04.192Z,-0.55
2022-12-28T17:24:32.595Z,-0.62
2022-12-28T17:27:07.157Z,-0.68
2022-12-28T17:29:37.979Z,-0.74
2022-12-28T17:32:06.497Z,-0.81
2022-12-28T17:34:35.007Z,-0.80
2022-12-28T17:37:03.915Z,-0.84
2022-12-28T17:39:37.582Z,-0.89
2022-12-28T17:42:08.287Z,-0.95
2022-12-28T17:44:36.382Z,-0.95
2022-12-28T17:47:04.621Z,-0.95
2022-12-28T17:49:32.618Z,-0.94
2022-12-28T17:52:00.775Z,-0.91
2022-12-28T17:54:28.867Z,-0.88
2022-12-28T17:56:56.778Z,-0.84
2022-12-28T17:59:24.698Z,-0.79
2022-12-28T18:01:53.873Z,-0.75
2022-12-28T18:04:21.993Z,-0.72
2022-12-28T18:06:50.419Z,-0.70
2022-12-28T18:09:22.526Z,-0.67
2022-12-28T18:11:55.903Z,-0.64
2022-12-28T18:14:24.668Z,-0.61
2022-12-28T18:16:53.687Z,-0.61
2022-12-28T18:19:21.917Z,-0.62
2022-12-28T18:21:50.262Z,-0.63
2022-12-28T18:24:21.175Z,-0.65
2022-12-28T18:26:49.385Z,-0.66
2022-12-28T18:29:17.696Z,-0.65
2022-12-28T18:31:45.835Z,-0.65
2022-12-28T18:34:14.650Z,-0.65
2022-12-28T18:36:42.743Z,-0.67
2022-12-28T18:39:10.876Z,-0.69
2022-12-28T18:41:38.835Z,-0.66
2022-12-28T18:44:06.894Z,-0.71
2022-12-28T18:46:34.888Z,-0.75
2022-12-28T18:49:03.032Z,-0.79
2022-12-28T18:51:31.103Z,-0.82
2022-12-28T18:53:59.075Z,-0.85
2022-12-28T18:56:27.044Z,-0.90
2022-12-28T18:58:56.388Z,-0.96
2022-12-28T19:02:05.781Z,-1.01
2022-12-28T19:04:13.601Z,-1.07
2022-12-28T19:06:41.876Z,-1.11
2022-12-28T19:09:10.066Z,-1.16
2022-12-28T19:11:39.195Z,-1.21
2022-12-28T19:14:07.993Z,-1.25
2022-12-28T19:16:36.029Z,-1.30
2022-12-28T19:19:04.094Z,-1.34
2022-12-28T19:21:38.865Z,-1.37
2022-12-28T19:24:15.525Z,-1.42
2022-12-28T19:26:44.489Z,-1.47
2022-12-28T19:29:13.107Z,-1.51
2022-12-28T19:31:41.253Z,-1.56
2022-12-28T19:34:09.464Z,-1.56
2022-12-28T19:36:37.520Z,-1.59
2022-12-28T19:39:05.418Z,-1.61
2022-12-28T19:41:33.388Z,-1.61
2022-12-28T19:44:01.670Z,-1.60
2022-12-28T19:46:32.782Z,-1.56
2022-12-28T19:49:01.730Z,-1.51
2022-12-28T19:51:31.592Z,-1.48
2022-12-28T19:54:00.548Z,-1.44
2022-12-28T19:56:28.977Z,-1.39
2022-12-28T19:59:03.410Z,-1.34
2022-12-28T20:01:34.577Z,-1.30
2022-12-28T20:04:08.744Z,-1.28
2022-12-28T20:06:40.109Z,-1.30
2022-12-28T20:09:08.042Z,-1.34
2022-12-28T20:11:36.301Z,-1.37
2022-12-28T20:14:04.246Z,-1.39
2022-12-28T20:16:33.493Z,-1.38
2022-12-28T20:19:02.022Z,-1.36
2022-12-28T20:21:30.517Z,-1.34
2022-12-28T20:23:58.438Z,-1.35
2022-12-28T20:26:28.469Z,-1.38
2022-12-28T20:28:57.605Z,-1.41
2022-12-28T20:31:26.275Z,-1.46
2022-12-28T20:33:54.719Z,-1.52
2022-12-28T20:36:24.525Z,-1.57
2022-12-28T20:38:53.891Z,-1.62
2022-12-28T20:41:41.604Z,-1.68
2022-12-28T20:44:10.803Z,-1.73
2022-12-28T20:46:39.275Z,-1.79
2022-12-28T20:49:07.236Z,-1.83
2022-12-28T20:51:35.120Z,-1.89
2022-12-28T20:54:03.127Z,-1.92
2022-12-28T20:56:31.051Z,-1.92
2022-12-28T20:58:59.197Z,-1.89
2022-12-28T21:01:27.488Z,-1.87
2022-12-28T21:03:55.485Z,-1.88
2022-12-28T21:06:23.437Z,-1.90
2022-12-28T21:08:51.404Z,-1.91
2022-12-28T21:11:19.361Z,-1.88
2022-12-28T21:13:47.284Z,-1.86
2022-12-28T21:16:15.752Z,-1.83
2022-12-28T21:18:43.918Z,-1.83
2022-12-28T21:21:16.076Z,-1.82
2022-12-28T21:23:44.290Z,-1.81
2022-12-28T21:26:13.827Z,-1.80
2022-12-28T21:28:42.424Z,-1.78
2022-12-28T21:31:10.597Z,-1.77
2022-12-28T21:33:39.188Z,-1.77
2022-12-28T21:36:08.677Z,-1.76
2022-12-28T21:38:38.502Z,-1.76
2022-12-28T21:41:10.987Z,-1.79
2022-12-28T21:43:39.444Z,-1.83
2022-12-28T21:46:09.226Z,-1.87
2022-12-28T21:48:37.897Z,-1.90
2022-12-28T21:51:34.367Z,-1.97
2022-12-28T21:54:03.940Z,-2.09
2022-12-28T21:56:32.328Z,-2.15
2022-12-28T21:59:01.767Z,-2.21
2022-12-28T22:01:48.489Z,-2.25
2022-12-28T22:04:39.008Z,-2.32
2022-12-28T22:07:07.910Z,-2.37
2022-12-28T22:09:55.280Z,-2.40
2022-12-28T22:12:39.693Z,-2.39
2022-12-28T22:15:26.336Z,-2.38
2022-12-28T22:17:58.675Z,-2.39
2022-12-28T22:20:28.237Z,-2.42
2022-12-28T22:22:57.747Z,-2.43
2022-12-28T22:25:26.571Z,-2.44
2022-12-28T22:27:54.705Z,-2.45
2022-12-28T22:30:22.714Z,-2.44
2022-12-28T22:32:50.540Z,-2.43
2022-12-28T22:35:18.794Z,-2.42
2022-12-28T22:37:46.736Z,-2.37
2022-12-28T22:40:14.648Z,-2.31
2022-12-28T22:42:47.219Z,-2.28
2022-12-28T22:45:16.865Z,-2.24
2022-12-28T22:47:45.329Z,-2.21
2022-12-28T22:50:14.621Z,-2.16
2022-12-28T22:52:43.358Z,-2.12
2022-12-28T22:55:11.468Z,-2.11
2022-12-28T22:57:39.548Z,-2.06
2022-12-28T23:00:09.357Z,-2.00
2022-12-28T23:02:37.895Z,-1.95
2022-12-28T23:05:06.354Z,-1.92
2022-12-28T23:07:36.351Z,-1.92
2022-12-28T23:10:04.615Z,-1.93
2022-12-28T23:12:32.819Z,-1.95
2022-12-28T23:15:15.921Z,-1.98
2022-12-28T23:17:43.982Z,-2.02
2022-12-28T23:20:31.032Z,-2.07
2022-12-28T23:23:17.681Z,-2.14
2022-12-28T23:26:04.202Z,-2.21
2022-12-28T23:28:33.702Z,-2.26
2022-12-28T23:31:01.855Z,-2.32
2022-12-28T23:33:29.746Z,-2.38
2022-12-28T23:36:01.234Z,-2.43
2022-12-28T23:38:30.589Z,-2.49
2022-12-28T23:41:17.559Z,-2.55
2022-12-28T23:43:45.371Z,-2.60
2022-12-28T23:46:13.264Z,-2.65
2022-12-28T23:48:41.193Z,-2.70
2022-12-28T23:51:09.258Z,-2.75
2022-12-28T23:53:37.357Z,-2.78
2022-12-28T23:56:05.575Z,-2.81
2022-12-28T23:58:33.685Z,-2.82
